createdAt,value
2018-03-30T00:01:36.672Z,1.90
2018-03-30T00:04:05.621Z,1.70
2018-03-30T00:06:33.895Z,1.70
2018-03-30T00:09:02.173Z,1.60
2018-03-30T00:11:30.450Z,1.60
2018-03-30T00:13:58.700Z,1.50
2018-03-30T00:16:26.941Z,1.50
2018-03-30T00:18:55.942Z,1.50
2018-03-30T00:21:24.959Z,1.60
2018-03-30T00:23:53.208Z,1.60
2018-03-30T00:26:22.216Z,1.70
2018-03-30T00:28:50.467Z,1.70
2018-03-30T00:31:18.716Z,1.70
2018-03-30T00:33:46.959Z,1.80
2018-03-30T00:36:15.208Z,1.90
2018-03-30T00:38:44.241Z,1.70
2018-03-30T00:41:12.487Z,1.70
2018-03-30T00:43:41.489Z,1.70
2018-03-30T00:46:09.829Z,1.70
2018-03-30T00:48:38.107Z,1.80
2018-03-30T00:51:06.366Z,1.90
2018-03-30T00:53:54.252Z,1.90
2018-03-30T00:56:23.315Z,1.90
2018-03-30T00:58:51.555Z,1.90
2018-03-30T01:01:19.785Z,1.90
2018-03-30T01:03:48.812Z,1.70
2018-03-30T01:06:17.150Z,1.70
2018-03-30T01:08:45.443Z,1.70
2018-03-30T01:11:14.453Z,1.50
2018-03-30T01:13:43.466Z,1.40
2018-03-30T01:16:11.749Z,1.40
2018-03-30T01:18:39.989Z,1.50
2018-03-30T01:21:09.042Z,1.60
2018-03-30T01:23:37.295Z,1.60
2018-03-30T01:26:05.549Z,1.50
2018-03-30T01:28:33.852Z,1.50
2018-03-30T01:31:02.102Z,1.60
2018-03-30T01:33:30.411Z,1.60
2018-03-30T01:35:58.641Z,1.50
2018-03-30T01:38:27.706Z,1.50
2018-03-30T01:40:55.937Z,1.50
2018-03-30T01:43:24.229Z,1.50
2018-03-30T01:45:52.526Z,1.60
2018-03-30T01:48:20.757Z,1.60
2018-03-30T01:50:49.015Z,1.60
2018-03-30T01:53:18.820Z,1.60
2018-03-30T01:55:47.066Z,1.60
2018-03-30T01:58:15.340Z,1.60
2018-03-30T02:00:43.585Z,1.60
2018-03-30T02:03:11.868Z,1.70
2018-03-30T02:05:40.133Z,1.70
2018-03-30T02:08:08.419Z,1.70
2018-03-30T02:10:36.651Z,1.60
2018-03-30T02:13:04.942Z,1.60
2018-03-30T02:15:33.219Z,1.50
2018-03-30T02:18:01.517Z,1.50
2018-03-30T02:20:30.566Z,1.40
2018-03-30T02:22:58.847Z,1.40
2018-03-30T02:25:27.120Z,1.50
2018-03-30T02:27:55.368Z,1.50
2018-03-30T02:30:23.651Z,1.40
2018-03-30T02:32:51.936Z,1.50
2018-03-30T02:35:20.210Z,1.50
2018-03-30T02:37:48.465Z,1.60
2018-03-30T02:40:16.758Z,1.60
2018-03-30T02:42:44.994Z,1.60
2018-03-30T02:45:14.047Z,1.60
2018-03-30T02:47:42.283Z,1.60
2018-03-30T02:50:10.527Z,1.60
2018-03-30T02:52:38.775Z,1.60
2018-03-30T02:55:07.068Z,1.50
2018-03-30T02:57:35.314Z,1.40
2018-03-30T03:00:03.595Z,1.40
2018-03-30T03:02:31.834Z,1.20
2018-03-30T03:05:00.846Z,1.00
2018-03-30T03:07:29.094Z,1.10
2018-03-30T03:09:57.352Z,1.00
2018-03-30T03:12:25.613Z,1.00
2018-03-30T03:14:53.837Z,1.10
2018-03-30T03:17:22.133Z,1.10
2018-03-30T03:19:50.357Z,1.10
2018-03-30T03:22:18.605Z,1.10
2018-03-30T03:24:46.847Z,1.20
2018-03-30T03:27:15.136Z,1.30
2018-03-30T03:29:43.413Z,1.30
2018-03-30T03:32:11.694Z,1.40
2018-03-30T03:34:39.964Z,1.40
2018-03-30T03:37:08.214Z,1.40
2018-03-30T03:39:37.208Z,1.30
2018-03-30T03:42:06.276Z,1.30
2018-03-30T03:44:34.510Z,1.30
2018-03-30T03:47:02.758Z,1.30
2018-03-30T03:49:31.803Z,1.30
2018-03-30T03:52:00.092Z,1.30
2018-03-30T03:54:29.078Z,1.30
2018-03-30T03:56:57.339Z,1.30
2018-03-30T03:59:25.624Z,1.30
2018-03-30T04:01:53.906Z,1.30
2018-03-30T04:04:22.193Z,1.30
2018-03-30T04:06:50.456Z,1.30
2018-03-30T04:09:18.706Z,1.40
2018-03-30T04:11:46.978Z,1.40
2018-03-30T04:14:15.990Z,1.50
2018-03-30T04:16:44.222Z,1.40
2018-03-30T04:19:12.515Z,1.50
2018-03-30T04:21:41.548Z,1.40
2018-03-30T04:24:09.808Z,1.40
2018-03-30T04:26:38.031Z,1.40
2018-03-30T04:29:06.332Z,1.40
2018-03-30T04:31:35.361Z,1.30
2018-03-30T04:34:03.589Z,1.30
2018-03-30T04:36:31.878Z,1.40
2018-03-30T04:39:00.157Z,1.30
2018-03-30T04:41:29.212Z,1.30
2018-03-30T04:43:57.436Z,1.30
2018-03-30T04:46:26.452Z,1.30
2018-03-30T04:48:54.695Z,1.30
2018-03-30T04:51:23.762Z,1.40
2018-03-30T04:53:52.753Z,1.40
2018-03-30T04:56:21.002Z,1.40
2018-03-30T04:58:49.240Z,1.40
2018-03-30T05:01:18.307Z,1.30
2018-03-30T05:03:46.575Z,1.30
2018-03-30T05:06:14.852Z,1.30
2018-03-30T05:08:43.117Z,1.30
2018-03-30T05:11:11.401Z,1.30
2018-03-30T05:13:39.642Z,1.30
2018-03-30T05:16:07.919Z,1.20
2018-03-30T05:18:36.170Z,1.20
2018-03-30T05:21:04.461Z,1.20
2018-03-30T05:23:33.924Z,1.20
2018-03-30T05:26:02.853Z,1.10
2018-03-30T05:28:31.864Z,1.20
2018-03-30T05:31:00.137Z,1.10
2018-03-30T05:33:29.148Z,1.30
2018-03-30T05:35:57.529Z,1.30
2018-03-30T05:38:29.338Z,1.40
2018-03-30T05:40:57.871Z,1.50
2018-03-30T05:43:27.112Z,1.50
2018-03-30T05:45:55.126Z,1.60
2018-03-30T05:48:23.442Z,1.70
2018-03-30T05:50:51.718Z,1.60
2018-03-30T05:53:20.003Z,1.60
2018-03-30T05:55:48.282Z,1.50
2018-03-30T05:58:16.528Z,1.50
2018-03-30T06:00:44.774Z,1.60
2018-03-30T06:03:13.634Z,1.70
2018-03-30T06:05:41.933Z,1.60
2018-03-30T06:08:10.165Z,1.70
2018-03-30T06:10:38.407Z,1.80
2018-03-30T06:13:06.693Z,1.90
2018-03-30T06:15:34.989Z,2.00
2018-03-30T06:18:03.265Z,2.00
2018-03-30T06:20:31.511Z,2.10
2018-03-30T06:23:00.505Z,2.30
2018-03-30T06:25:29.577Z,2.30
2018-03-30T06:27:58.708Z,2.40
2018-03-30T06:30:27.012Z,2.50
2018-03-30T06:32:56.200Z,2.60
2018-03-30T06:35:24.474Z,2.80
2018-03-30T06:37:53.516Z,3.00
2018-03-30T06:40:21.799Z,3.00
2018-03-30T06:42:50.044Z,3.10
2018-03-30T06:45:18.281Z,3.20
2018-03-30T06:47:47.288Z,3.40
2018-03-30T06:50:15.529Z,3.40
2018-03-30T06:52:44.560Z,3.70
2018-03-30T06:55:12.816Z,3.60
2018-03-30T06:57:41.878Z,3.90
2018-03-30T07:00:10.135Z,3.90
2018-03-30T07:02:38.425Z,4.00
2018-03-30T07:05:06.668Z,4.20
2018-03-30T07:07:34.912Z,4.30
2018-03-30T07:10:04.740Z,4.60
2018-03-30T07:12:33.787Z,4.70
2018-03-30T07:15:02.051Z,4.60
2018-03-30T07:17:30.346Z,4.80
2018-03-30T07:19:58.574Z,5.00
2018-03-30T07:22:26.875Z,5.10
2018-03-30T07:24:55.100Z,5.20
2018-03-30T07:27:24.718Z,5.50
2018-03-30T07:29:53.773Z,5.60
2018-03-30T07:32:22.077Z,5.60
2018-03-30T07:34:50.361Z,5.80
2018-03-30T07:37:18.644Z,5.90
2018-03-30T07:39:47.996Z,6.10
2018-03-30T07:42:16.240Z,6.10
2018-03-30T07:44:44.488Z,6.20
2018-03-30T07:47:12.712Z,6.30
2018-03-30T07:49:41.017Z,6.50
2018-03-30T07:52:09.249Z,6.60
2018-03-30T07:54:37.539Z,6.80
2018-03-30T07:57:06.108Z,6.90
2018-03-30T07:59:34.423Z,7.10
2018-03-30T08:02:02.429Z,7.30
2018-03-30T08:04:30.723Z,7.30
2018-03-30T08:06:59.764Z,7.50
2018-03-30T08:09:28.039Z,7.60
2018-03-30T08:11:56.339Z,7.70
2018-03-30T08:14:24.614Z,7.80
2018-03-30T08:16:52.916Z,7.90
2018-03-30T08:19:21.985Z,8.10
2018-03-30T08:21:51.029Z,8.20
2018-03-30T08:24:20.019Z,8.30
2018-03-30T08:26:48.273Z,8.30
2018-03-30T08:29:16.501Z,8.50
2018-03-30T08:31:44.784Z,8.70
2018-03-30T08:34:13.038Z,8.80
2018-03-30T08:36:41.314Z,8.90
2018-03-30T08:39:09.554Z,9.00
2018-03-30T08:41:38.554Z,9.20
2018-03-30T08:44:07.595Z,9.30
2018-03-30T08:46:35.832Z,9.30
2018-03-30T08:49:04.853Z,9.50
2018-03-30T08:51:33.096Z,9.40
2018-03-30T08:54:02.164Z,9.60
2018-03-30T08:56:30.468Z,9.60
2018-03-30T08:58:58.775Z,9.70
2018-03-30T09:01:27.634Z,9.70
2018-03-30T09:03:56.247Z,9.70
2018-03-30T09:06:24.522Z,9.80
2018-03-30T09:08:52.825Z,9.80
2018-03-30T09:11:21.110Z,9.90
2018-03-30T09:13:49.650Z,10.00
2018-03-30T09:16:18.711Z,10.30
2018-03-30T09:18:46.982Z,10.30
2018-03-30T09:21:15.369Z,10.40
2018-03-30T09:23:43.645Z,10.50
2018-03-30T09:26:11.920Z,10.60
2018-03-30T09:28:40.195Z,10.70
2018-03-30T09:31:09.057Z,10.90
2018-03-30T09:33:37.357Z,11.00
2018-03-30T09:36:05.594Z,11.10
2018-03-30T09:38:33.900Z,11.20
2018-03-30T09:41:02.208Z,11.30
2018-03-30T09:43:30.503Z,11.40
2018-03-30T09:45:59.545Z,11.60
2018-03-30T09:48:27.800Z,11.60
2018-03-30T09:50:56.958Z,11.70
2018-03-30T09:53:25.224Z,11.80
2018-03-30T09:55:53.479Z,12.00
2018-03-30T09:58:21.777Z,12.10
2018-03-30T10:00:50.055Z,12.20
2018-03-30T10:03:18.343Z,12.30
2018-03-30T10:05:46.624Z,12.40
2018-03-30T10:08:15.766Z,12.40
2018-03-30T10:10:44.023Z,12.60
2018-03-30T10:13:12.317Z,12.70
2018-03-30T10:15:40.603Z,12.90
2018-03-30T10:18:08.890Z,13.00
2018-03-30T10:20:37.169Z,13.00
2018-03-30T10:23:05.469Z,12.90
2018-03-30T10:25:33.809Z,12.80
2018-03-30T10:28:02.087Z,12.90
2018-03-30T10:30:30.415Z,13.00
2018-03-30T10:32:58.701Z,13.10
2018-03-30T10:35:26.964Z,13.30
2018-03-30T10:37:55.226Z,13.30
2018-03-30T10:40:23.527Z,13.50
2018-03-30T10:42:51.821Z,13.60
2018-03-30T10:45:21.023Z,13.90
2018-03-30T10:47:49.646Z,13.90
2018-03-30T10:50:17.886Z,14.00
2018-03-30T10:52:46.212Z,14.20
2018-03-30T10:55:14.496Z,14.40
2018-03-30T10:57:42.788Z,14.50
2018-03-30T11:00:11.082Z,14.70
2018-03-30T11:02:40.109Z,15.00
2018-03-30T11:05:08.361Z,14.90
2018-03-30T11:07:36.655Z,15.00
2018-03-30T11:10:04.964Z,14.80
2018-03-30T11:12:33.237Z,15.00
2018-03-30T11:15:02.304Z,15.10
2018-03-30T11:17:30.593Z,15.40
2018-03-30T11:19:58.898Z,15.60
2018-03-30T11:22:27.137Z,15.80
2018-03-30T11:24:55.534Z,15.90
2018-03-30T11:27:24.511Z,16.40
2018-03-30T11:29:52.807Z,16.30
2018-03-30T11:32:21.053Z,16.50
2018-03-30T11:34:50.107Z,16.60
2018-03-30T11:37:18.402Z,16.60
2018-03-30T11:39:48.192Z,16.70
2018-03-30T11:42:16.439Z,16.70
2018-03-30T11:44:44.732Z,17.00
2018-03-30T11:47:12.965Z,17.20
2018-03-30T11:49:42.036Z,17.70
2018-03-30T11:52:10.299Z,17.60
2018-03-30T11:54:38.537Z,17.90
2018-03-30T11:57:06.802Z,18.10
2018-03-30T11:59:35.047Z,18.00
2018-03-30T12:02:03.372Z,18.00
2018-03-30T12:04:31.645Z,17.90
2018-03-30T12:06:59.932Z,18.00
2018-03-30T12:09:28.248Z,18.30
2018-03-30T12:11:58.033Z,18.40
2018-03-30T12:14:26.303Z,18.30
2018-03-30T12:16:54.539Z,18.40
2018-03-30T12:19:23.616Z,18.70
2018-03-30T12:21:51.896Z,18.70
2018-03-30T12:24:20.189Z,19.00
2018-03-30T12:26:49.264Z,18.90
2018-03-30T12:29:17.575Z,18.90
2018-03-30T12:31:46.624Z,19.00
2018-03-30T12:34:14.905Z,19.00
2018-03-30T12:36:43.203Z,19.00
2018-03-30T12:39:11.453Z,19.20
2018-03-30T12:41:39.747Z,19.40
2018-03-30T12:44:07.991Z,19.50
2018-03-30T12:46:36.241Z,19.60
2018-03-30T12:49:04.545Z,19.70
2018-03-30T12:51:32.834Z,20.00
2018-03-30T12:54:01.780Z,20.30
2018-03-30T12:56:30.868Z,20.80
2018-03-30T12:58:59.890Z,21.00
2018-03-30T13:01:28.215Z,20.90
2018-03-30T13:03:56.481Z,20.90
2018-03-30T13:06:25.030Z,20.80
2018-03-30T13:08:53.288Z,20.30
2018-03-30T13:11:22.298Z,19.30
2018-03-30T13:13:50.600Z,19.30
2018-03-30T13:16:18.839Z,19.20
2018-03-30T13:18:47.094Z,19.20
2018-03-30T13:21:16.138Z,19.00
2018-03-30T13:23:44.362Z,19.00
2018-03-30T13:26:13.422Z,18.80
2018-03-30T13:28:42.786Z,18.60
2018-03-30T13:31:11.783Z,18.40
2018-03-30T13:33:40.024Z,18.40
2018-03-30T13:36:08.353Z,18.40
2018-03-30T13:38:36.657Z,18.40
2018-03-30T13:41:04.945Z,18.50
2018-03-30T13:43:33.220Z,18.60
2018-03-30T13:46:01.523Z,18.70
2018-03-30T13:48:29.834Z,18.80
2018-03-30T13:51:19.710Z,18.90
2018-03-30T13:54:02.504Z,19.20
2018-03-30T13:56:41.025Z,20.00
2018-03-30T13:59:10.669Z,20.40
2018-03-30T14:01:40.583Z,20.40
2018-03-30T14:07:05.024Z,20.70
2018-03-30T14:09:37.175Z,20.90
2018-03-30T14:12:11.016Z,20.90
2018-03-30T14:14:39.265Z,21.00
2018-03-30T14:20:14.776Z,20.80
2018-03-30T14:22:49.482Z,20.70
2018-03-30T14:25:18.741Z,20.60
2018-03-30T14:28:11.667Z,20.50
2018-03-30T14:30:56.366Z,20.20
2018-03-30T14:33:27.329Z,20.20
2018-03-30T14:36:20.277Z,20.10
2018-03-30T14:39:00.071Z,19.90
2018-03-30T14:41:29.082Z,19.70
2018-03-30T14:43:57.389Z,19.70
2018-03-30T14:46:40.152Z,19.60
2018-03-30T14:49:12.176Z,19.30
2018-03-30T14:51:52.427Z,19.20
2018-03-30T14:54:25.977Z,19.10
2018-03-30T14:57:15.774Z,19.30
2018-03-30T14:59:52.452Z,19.30
2018-03-30T15:02:36.299Z,19.80
2018-03-30T15:05:13.159Z,20.60
2018-03-30T15:07:56.053Z,21.10
2018-03-30T15:10:41.848Z,21.10
2018-03-30T15:13:14.684Z,21.10
2018-03-30T15:15:50.634Z,21.20
2018-03-30T15:18:39.640Z,20.80
2018-03-30T15:24:00.658Z,20.60
2018-03-30T15:26:44.602Z,20.60
2018-03-30T15:29:16.467Z,20.60
2018-03-30T15:31:48.832Z,20.60
2018-03-30T15:34:20.696Z,20.50
2018-03-30T15:37:02.292Z,20.50
2018-03-30T15:39:30.550Z,20.40
2018-03-30T15:41:59.534Z,20.40
2018-03-30T15:44:32.444Z,20.30
2018-03-30T15:47:02.323Z,20.30
2018-03-30T15:49:30.573Z,20.30
2018-03-30T15:51:59.636Z,20.20
2018-03-30T15:54:27.385Z,20.20
2018-03-30T15:56:56.613Z,20.10
2018-03-30T15:59:24.869Z,20.00
2018-03-30T16:01:53.182Z,19.90
2018-03-30T16:04:21.452Z,19.70
2018-03-30T16:06:49.690Z,19.40
2018-03-30T16:09:22.935Z,19.20
2018-03-30T16:11:53.691Z,18.70
2018-03-30T16:14:21.981Z,18.70
2018-03-30T16:16:50.225Z,18.40
2018-03-30T16:19:18.810Z,18.10
2018-03-30T16:21:47.366Z,17.80
2018-03-30T16:24:15.118Z,17.80
2018-03-30T16:26:42.919Z,17.60
2018-03-30T16:29:11.464Z,17.40
2018-03-30T16:31:39.279Z,17.40
2018-03-30T16:34:07.841Z,17.10
2018-03-30T16:36:36.403Z,17.00
2018-03-30T16:39:04.174Z,17.00
2018-03-30T16:41:31.961Z,16.90
2018-03-30T16:44:00.494Z,16.80
2018-03-30T16:46:28.343Z,16.80
2018-03-30T16:48:56.109Z,16.80
2018-03-30T16:51:23.875Z,16.70
2018-03-30T16:53:51.705Z,16.60
2018-03-30T16:56:19.476Z,16.60
2018-03-30T16:58:47.255Z,16.50
2018-03-30T17:01:15.836Z,16.20
2018-03-30T17:03:44.396Z,16.20
2018-03-30T17:06:12.188Z,16.10
2018-03-30T17:08:40.734Z,15.90
2018-03-30T17:11:08.496Z,15.90
2018-03-30T17:13:36.274Z,15.90
2018-03-30T17:16:05.591Z,15.90
2018-03-30T17:18:34.922Z,15.90
2018-03-30T17:21:02.686Z,15.80
2018-03-30T17:23:30.510Z,15.80
2018-03-30T17:25:59.767Z,15.70
2018-03-30T17:28:27.573Z,15.70
2018-03-30T17:30:55.383Z,15.60
2018-03-30T17:33:23.223Z,15.50
2018-03-30T17:35:51.062Z,15.40
2018-03-30T17:38:18.823Z,15.40
2018-03-30T17:40:46.654Z,15.30
2018-03-30T17:43:14.455Z,15.30
2018-03-30T17:45:42.243Z,15.20
2018-03-30T17:48:10.005Z,15.20
2018-03-30T17:50:37.786Z,15.10
2018-03-30T17:53:06.316Z,15.00
2018-03-30T17:55:34.106Z,14.90
2018-03-30T17:58:01.890Z,14.80
2018-03-30T18:00:29.695Z,14.60
2018-03-30T18:02:57.485Z,14.50
2018-03-30T18:05:26.028Z,14.50
2018-03-30T18:07:54.628Z,14.40
2018-03-30T18:10:22.348Z,14.40
2018-03-30T18:12:50.180Z,14.40
2018-03-30T18:15:17.926Z,14.30
2018-03-30T18:17:45.707Z,14.30
2018-03-30T18:20:13.493Z,14.20
2018-03-30T18:22:41.227Z,14.20
2018-03-30T18:25:09.048Z,14.10
2018-03-30T18:27:36.874Z,14.00
2018-03-30T18:30:04.655Z,13.90
2018-03-30T18:32:32.425Z,13.80
2018-03-30T18:35:00.218Z,13.80
2018-03-30T18:37:27.975Z,13.70
2018-03-30T18:39:55.831Z,13.70
2018-03-30T18:42:23.643Z,13.60
2018-03-30T18:44:51.462Z,13.50
2018-03-30T18:47:19.899Z,13.50
2018-03-30T18:49:47.651Z,13.50
2018-03-30T18:52:15.435Z,13.40
2018-03-30T18:54:43.175Z,13.40
2018-03-30T18:57:11.718Z,13.20
2018-03-30T18:59:39.495Z,13.20
2018-03-30T19:02:07.282Z,13.10
2018-03-30T19:04:35.073Z,12.90
2018-03-30T19:07:02.895Z,12.80
2018-03-30T19:09:30.658Z,12.60
2018-03-30T19:11:58.425Z,12.40
2018-03-30T19:14:26.259Z,12.30
2018-03-30T19:16:54.025Z,12.20
2018-03-30T19:19:21.833Z,12.20
2018-03-30T19:21:50.359Z,11.90
2018-03-30T19:24:18.196Z,11.90
2018-03-30T19:26:46.733Z,11.70
2018-03-30T19:29:14.538Z,11.70
2018-03-30T19:31:43.917Z,11.70
2018-03-30T19:34:11.708Z,11.70
2018-03-30T19:36:39.461Z,11.80
2018-03-30T19:39:08.054Z,11.80
2018-03-30T19:41:36.613Z,11.80
2018-03-30T19:44:04.394Z,11.80
2018-03-30T19:46:32.212Z,11.80
2018-03-30T19:48:59.969Z,11.80
2018-03-30T19:51:28.097Z,11.80
2018-03-30T19:53:55.836Z,11.80
2018-03-30T19:56:23.628Z,11.80
2018-03-30T19:58:51.396Z,11.80
2018-03-30T20:01:19.190Z,11.80
2018-03-30T20:03:46.982Z,11.70
2018-03-30T20:06:14.820Z,11.70
2018-03-30T20:08:43.383Z,11.60
2018-03-30T20:11:11.222Z,11.60
2018-03-30T20:13:39.333Z,11.60
2018-03-30T20:16:07.121Z,11.60
2018-03-30T20:18:34.936Z,11.60
2018-03-30T20:21:02.738Z,11.60
2018-03-30T20:23:31.327Z,11.50
2018-03-30T20:25:59.128Z,11.40
2018-03-30T20:28:26.937Z,11.50
2018-03-30T20:30:54.722Z,11.40
2018-03-30T20:33:23.283Z,11.40
2018-03-30T20:35:51.117Z,11.40
2018-03-30T20:38:18.924Z,11.40
2018-03-30T20:40:47.491Z,11.30
2018-03-30T20:43:15.259Z,11.30
2018-03-30T20:45:43.063Z,11.30
2018-03-30T20:48:10.818Z,11.20
2018-03-30T20:50:38.622Z,11.20
2018-03-30T20:53:06.420Z,11.20
2018-03-30T20:55:35.007Z,11.10
2018-03-30T20:58:02.798Z,11.10
2018-03-30T21:00:31.374Z,11.20
2018-03-30T21:02:59.940Z,11.10
2018-03-30T21:05:27.757Z,11.10
2018-03-30T21:07:55.548Z,11.10
2018-03-30T21:10:23.338Z,11.10
2018-03-30T21:12:51.091Z,11.10
2018-03-30T21:15:18.884Z,11.10
2018-03-30T21:17:47.457Z,11.10
2018-03-30T21:20:15.204Z,11.00
2018-03-30T21:22:43.025Z,11.00
2018-03-30T21:25:10.795Z,11.10
2018-03-30T21:27:38.620Z,11.10
2018-03-30T21:30:06.419Z,11.10
2018-03-30T21:32:34.184Z,11.10
2018-03-30T21:35:01.983Z,11.10
2018-03-30T21:37:29.812Z,11.10
2018-03-30T21:39:57.560Z,11.10
2018-03-30T21:42:26.136Z,11.10
2018-03-30T21:44:53.897Z,11.10
2018-03-30T21:47:21.649Z,11.10
2018-03-30T21:49:49.413Z,11.10
2018-03-30T21:52:17.157Z,11.20
2018-03-30T21:54:44.944Z,11.20
2018-03-30T21:57:13.498Z,11.20
2018-03-30T21:59:41.342Z,11.20
2018-03-30T22:02:09.120Z,11.20
2018-03-30T22:04:36.880Z,11.10
2018-03-30T22:07:04.665Z,11.20
2018-03-30T22:09:32.409Z,11.20
2018-03-30T22:12:00.178Z,11.20
2018-03-30T22:14:27.930Z,11.20
2018-03-30T22:16:55.691Z,11.20
2018-03-30T22:19:24.240Z,11.20
2018-03-30T22:21:52.036Z,11.10
2018-03-30T22:24:20.583Z,11.00
2018-03-30T22:26:48.383Z,11.00
2018-03-30T22:29:16.927Z,10.80
2018-03-30T22:31:44.667Z,10.80
2018-03-30T22:34:12.476Z,10.80
2018-03-30T22:36:40.269Z,10.80
2018-03-30T22:39:08.071Z,10.70
2018-03-30T22:41:35.860Z,10.60
2018-03-30T22:44:03.685Z,10.60
2018-03-30T22:46:31.476Z,10.60
2018-03-30T22:48:59.214Z,10.60
2018-03-30T22:51:27.025Z,10.60
2018-03-30T22:53:54.768Z,10.60
2018-03-30T22:56:22.574Z,10.60
2018-03-30T22:58:50.317Z,10.60
2018-03-30T23:01:18.135Z,10.70
2018-03-30T23:03:45.874Z,10.70
2018-03-30T23:06:14.459Z,10.70
2018-03-30T23:08:43.026Z,10.70
2018-03-30T23:11:10.836Z,10.70
2018-03-30T23:13:38.593Z,10.70
2018-03-30T23:16:06.356Z,10.70
2018-03-30T23:18:34.181Z,10.80
2018-03-30T23:21:01.959Z,10.80
2018-03-30T23:23:29.767Z,10.80
2018-03-30T23:25:57.549Z,10.90
2018-03-30T23:28:25.351Z,10.80
2018-03-30T23:30:53.141Z,10.80
2018-03-30T23:33:21.676Z,10.80
2018-03-30T23:35:50.214Z,10.90
2018-03-30T23:38:18.736Z,10.80
2018-03-30T23:40:46.500Z,10.80
2018-03-30T23:43:14.332Z,10.90
2018-03-30T23:45:42.084Z,10.70
2018-03-30T23:48:10.601Z,10.80
2018-03-30T23:50:38.398Z,10.80
2018-03-30T23:53:06.165Z,10.80
2018-03-30T23:55:33.960Z,10.70
2018-03-30T23:58:02.597Z,10.60
